METAR OBSERVATIONS
Looking Back 6 hours

  • KPBF 101153Z AUTO 23006KT 10SM CLR 14/12 A2968 RMK AO2 SLP049 60027 70039 T01440122 10189 20139 51040 =
  • KPBF 101053Z AUTO 25004KT 10SM CLR 15/12 A2968 RMK AO2 SLP048 T01500122 =
  • KPBF 100953Z AUTO 28008KT 10SM CLR 16/12 A2965 RMK AO2 SLP037 T01560122 =
  • KPBF 100853Z AUTO 13003KT 10SM BKN100 15/13 A2956 RMK AO2 RAE34 SLP009 P0001 60027 T01500128 58010 =
  • KPBF 100753Z AUTO 03005KT 9SM -RA FEW070 OVC090 16/12 A2961 RMK AO2 WSHFT0640 TSE22 PRESFR SLP026 P0002 T01560122 =
  • KPBF 100728Z AUTO 25008G19KT 10SM -RA OVC090 16/12 A2970 RMK AO2 WSHFT0640 LTG DSNT E TSE22 P0000 T01610117 =
  • SPECI KPBF 100656Z AUTO 30014G28KT 3SM -TSRA BKN035 BKN050 OVC110 17/12 A2969 RMK AO2 WSHFT0640 LTG DSNT ALQDS P0000 T01670122 =
  • KPBF 100653Z AUTO 30018G35KT 2SM +TSRA BKN033 BKN050 BKN070 17/12 A2969 RMK AO2 PKWND 29035/0646 WSHFT0635 LTG DSNT N AND S AND NW RAB41 TSB41 SLP052 P0024 T01670122 =
  • KPBF 100640Z AUTO 28020G25KT 10SM VCTS FEW035 SCT050 BKN100 19/13 A2969 RMK AO2 LTG DSNT ALQDS PRESRR T01890133 =
    ________________________________________